createdAt,value
2019-01-24T00:00:41.164Z,99.00
2019-01-24T00:03:09.582Z,98.70
2019-01-24T00:05:37.976Z,98.30
2019-01-24T00:08:06.428Z,98.20
2019-01-24T00:10:34.804Z,98.20
2019-01-24T00:13:03.204Z,98.20
2019-01-24T00:15:31.598Z,98.10
2019-01-24T00:17:59.966Z,98.00
2019-01-24T00:20:28.416Z,97.90
2019-01-24T00:22:57.548Z,98.10
2019-01-24T00:25:25.946Z,98.10
2019-01-24T00:27:54.343Z,98.00
2019-01-24T00:30:22.717Z,98.30
2019-01-24T00:32:52.092Z,97.80
2019-01-24T00:35:20.520Z,97.70
2019-01-24T00:37:48.896Z,97.60
2019-01-24T00:40:18.834Z,97.50
2019-01-24T00:42:47.735Z,97.70
2019-01-24T00:45:16.283Z,97.80
2019-01-24T00:47:44.682Z,97.50
2019-01-24T00:50:13.945Z,97.50
2019-01-24T00:52:42.317Z,97.30
2019-01-24T00:55:11.785Z,97.60
2019-01-24T00:57:40.158Z,97.60
2019-01-24T01:00:18.696Z,97.90
2019-01-24T01:02:47.080Z,98.00
2019-01-24T01:05:15.454Z,98.00
2019-01-24T01:07:44.031Z,98.20
2019-01-24T01:10:12.897Z,98.30
2019-01-24T01:12:41.398Z,98.30
2019-01-24T01:15:16.809Z,98.50
2019-01-24T01:17:45.566Z,98.40
2019-01-24T01:20:15.324Z,98.30
2019-01-24T01:22:45.613Z,98.10
2019-01-24T01:25:14.156Z,98.10
2019-01-24T01:27:42.771Z,98.20
2019-01-24T01:30:15.601Z,98.20
2019-01-24T01:32:44.347Z,98.20
2019-01-24T01:35:12.821Z,98.20
2019-01-24T01:37:41.281Z,98.20
2019-01-24T01:40:11.040Z,98.20
2019-01-24T01:42:39.789Z,98.20
2019-01-24T01:45:12.808Z,98.20
2019-01-24T01:47:41.179Z,98.50
2019-01-24T01:50:14.303Z,98.10
2019-01-24T01:52:46.883Z,98.10
2019-01-24T01:55:15.359Z,98.00
2019-01-24T01:57:43.724Z,97.90
2019-01-24T02:00:16.377Z,97.90
2019-01-24T02:02:45.556Z,97.80
2019-01-24T02:05:13.939Z,97.80
2019-01-24T02:07:42.500Z,97.90
2019-01-24T02:10:15.211Z,98.10
2019-01-24T02:12:44.823Z,98.30
2019-01-24T02:15:14.295Z,98.40
2019-01-24T02:17:42.752Z,98.50
2019-01-24T02:20:12.677Z,98.50
2019-01-24T02:22:41.787Z,98.50
2019-01-24T02:25:10.551Z,98.50
2019-01-24T02:27:39.099Z,98.40
2019-01-24T02:30:09.010Z,98.30
2019-01-24T02:32:37.932Z,98.40
2019-01-24T02:35:07.500Z,98.30
2019-01-24T02:37:35.886Z,98.40
2019-01-24T02:40:05.751Z,98.50
2019-01-24T02:42:35.810Z,98.60
2019-01-24T02:45:05.710Z,98.50
2019-01-24T02:47:34.108Z,98.50
2019-01-24T02:50:02.665Z,98.50
2019-01-24T02:52:31.062Z,98.50
2019-01-24T02:54:59.441Z,98.50
2019-01-24T02:57:27.825Z,98.50
2019-01-24T02:59:56.198Z,98.40
2019-01-24T03:02:25.056Z,98.30
2019-01-24T03:04:57.050Z,98.40
2019-01-24T03:07:23.510Z,98.40
2019-01-24T03:09:51.899Z,98.40
2019-01-24T03:12:20.290Z,98.30
2019-01-24T03:14:48.668Z,98.30
2019-01-24T03:17:17.064Z,98.30
2019-01-24T03:19:45.518Z,98.30
2019-01-24T03:22:13.878Z,98.40
2019-01-24T03:24:42.297Z,98.40
2019-01-24T03:27:10.732Z,98.40
2019-01-24T03:29:39.124Z,98.40
2019-01-24T03:32:07.524Z,98.50
2019-01-24T03:34:35.914Z,98.40
2019-01-24T03:37:04.373Z,98.50
2019-01-24T03:39:32.774Z,98.50
2019-01-24T03:42:01.226Z,98.60
2019-01-24T03:44:29.812Z,98.50
2019-01-24T03:46:58.185Z,98.60
2019-01-24T03:49:26.564Z,98.60
2019-01-24T03:51:54.978Z,98.50
2019-01-24T03:54:23.340Z,98.50
2019-01-24T03:56:51.747Z,98.50
2019-01-24T03:59:20.115Z,98.50
2019-01-24T04:01:49.080Z,98.40
2019-01-24T04:04:17.469Z,98.40
2019-01-24T04:06:45.837Z,98.50
2019-01-24T04:09:14.217Z,98.60
2019-01-24T04:11:42.609Z,98.60
2019-01-24T04:14:11.046Z,98.60
2019-01-24T04:16:39.428Z,98.60
2019-01-24T04:19:07.799Z,98.70
2019-01-24T04:21:36.172Z,98.60
2019-01-24T04:24:04.637Z,98.60
2019-01-24T04:26:33.029Z,98.60
2019-01-24T04:29:01.415Z,98.60
2019-01-24T04:31:29.784Z,98.60
2019-01-24T04:33:58.153Z,98.60
2019-01-24T04:36:26.546Z,98.60
2019-01-24T04:38:55.793Z,98.70
2019-01-24T04:41:24.271Z,98.80
2019-01-24T04:43:52.664Z,98.80
2019-01-24T04:46:21.033Z,98.80
2019-01-24T04:48:49.449Z,98.80
2019-01-24T04:51:17.877Z,98.90
2019-01-24T04:53:46.264Z,98.90
2019-01-24T04:56:14.696Z,99.00
2019-01-24T04:58:43.106Z,99.10
2019-01-24T05:01:11.503Z,99.20
2019-01-24T05:03:39.909Z,99.60
2019-01-24T05:06:08.311Z,99.20
2019-01-24T05:08:36.807Z,99.20
2019-01-24T05:11:05.203Z,99.30
2019-01-24T05:13:33.625Z,99.30
2019-01-24T05:16:02.025Z,99.50
2019-01-24T05:18:30.482Z,99.60
2019-01-24T05:20:58.871Z,99.70
2019-01-24T05:23:27.281Z,99.80
2019-01-24T05:25:55.667Z,99.90
2019-01-24T05:28:24.054Z,99.90
2019-01-24T05:30:52.440Z,99.90
2019-01-24T05:33:20.811Z,99.90
2019-01-24T05:35:49.295Z,99.90
2019-01-24T05:38:17.680Z,99.90
2019-01-24T05:40:46.066Z,99.90
2019-01-24T05:43:14.463Z,99.90
2019-01-24T05:45:42.858Z,99.90
2019-01-24T05:48:11.214Z,99.90
2019-01-24T05:50:39.694Z,99.90
2019-01-24T05:53:08.077Z,99.90
2019-01-24T05:55:36.506Z,99.90
2019-01-24T05:58:04.902Z,99.90
2019-01-24T06:00:34.909Z,99.90
2019-01-24T06:03:03.360Z,99.90
2019-01-24T06:05:31.740Z,99.90
2019-01-24T06:08:00.138Z,99.90
2019-01-24T06:10:28.510Z,99.90
2019-01-24T06:12:56.920Z,99.90
2019-01-24T06:15:26.091Z,99.90
2019-01-24T06:17:55.361Z,99.90
2019-01-24T06:20:24.665Z,99.90
2019-01-24T06:22:53.192Z,99.90
2019-01-24T06:25:21.592Z,99.90
2019-01-24T06:27:49.979Z,99.90
2019-01-24T06:30:21.458Z,99.90
2019-01-24T06:32:50.008Z,99.90
2019-01-24T06:35:18.414Z,99.90
2019-01-24T06:37:47.252Z,99.90
2019-01-24T06:40:15.985Z,99.90
2019-01-24T06:42:50.813Z,99.90
2019-01-24T06:45:20.190Z,99.90
2019-01-24T06:47:48.634Z,99.90
2019-01-24T06:50:17.681Z,99.90
2019-01-24T06:52:46.429Z,99.90
2019-01-24T06:55:18.832Z,99.90
2019-01-24T06:57:47.378Z,99.90
2019-01-24T07:00:16.788Z,99.90
2019-01-24T07:02:46.034Z,99.90
2019-01-24T07:05:15.728Z,99.90
2019-01-24T07:07:44.204Z,99.90
2019-01-24T07:10:14.102Z,99.90
2019-01-24T07:12:42.555Z,99.90
2019-01-24T07:15:12.485Z,99.90
2019-01-24T07:17:41.023Z,99.90
2019-01-24T07:20:12.938Z,99.90
2019-01-24T07:22:42.258Z,99.90
2019-01-24T07:25:17.274Z,99.90
2019-01-24T07:27:46.515Z,99.90
2019-01-24T07:30:17.646Z,99.90
2019-01-24T07:33:05.190Z,99.90
2019-01-24T07:35:34.454Z,99.90
2019-01-24T07:38:02.908Z,99.90
2019-01-24T07:40:32.088Z,99.90
2019-01-24T07:43:01.376Z,99.90
2019-01-24T07:45:31.199Z,99.90
2019-01-24T07:47:59.568Z,99.90
2019-01-24T07:50:28.724Z,99.90
2019-01-24T07:52:57.220Z,99.90
2019-01-24T07:55:26.565Z,99.90
2019-01-24T07:57:55.834Z,99.90
2019-01-24T08:00:27.028Z,99.90
2019-01-24T08:02:57.294Z,99.90
2019-01-24T08:05:28.782Z,99.90
2019-01-24T08:07:58.212Z,99.90
2019-01-24T08:10:27.464Z,99.90
2019-01-24T08:12:56.733Z,99.90
2019-01-24T08:15:26.050Z,99.90
2019-01-24T08:17:55.294Z,99.90
2019-01-24T08:20:26.608Z,99.90
2019-01-24T08:22:56.101Z,99.90
2019-01-24T08:25:25.497Z,99.90
2019-01-24T08:27:54.707Z,99.90
2019-01-24T08:30:26.574Z,99.90
2019-01-24T08:32:55.987Z,99.90
2019-01-24T08:35:25.260Z,99.90
2019-01-24T08:37:54.580Z,99.90
2019-01-24T08:40:24.782Z,99.90
2019-01-24T08:42:54.938Z,99.90
2019-01-24T08:45:24.263Z,99.90
2019-01-24T08:47:53.511Z,99.90
2019-01-24T08:50:24.686Z,99.90
2019-01-24T08:52:54.812Z,99.90
2019-01-24T08:55:35.336Z,99.90
2019-01-24T08:58:05.503Z,99.90
2019-01-24T09:00:34.836Z,99.90
2019-01-24T09:03:04.778Z,99.90
2019-01-24T09:05:34.128Z,99.90
2019-01-24T09:08:03.889Z,99.90
2019-01-24T09:10:35.155Z,99.90
2019-01-24T09:13:05.633Z,99.90
2019-01-24T09:15:35.016Z,99.90
2019-01-24T09:18:05.111Z,99.90
2019-01-24T09:20:34.443Z,99.90
2019-01-24T09:23:05.459Z,99.90
2019-01-24T09:25:34.978Z,99.90
2019-01-24T09:28:04.392Z,99.90
2019-01-24T09:30:33.790Z,99.90
2019-01-24T09:33:03.074Z,99.90
2019-01-24T09:35:32.575Z,99.90
2019-01-24T09:38:01.810Z,99.90
2019-01-24T09:40:31.052Z,99.80
2019-01-24T09:43:00.308Z,99.70
2019-01-24T09:45:29.898Z,99.30
2019-01-24T09:47:59.627Z,99.20
2019-01-24T09:50:29.711Z,99.20
2019-01-24T09:52:58.953Z,98.80
2019-01-24T09:55:28.259Z,98.50
2019-01-24T09:57:57.737Z,98.20
2019-01-24T10:00:29.141Z,98.00
2019-01-24T10:02:58.461Z,97.60
2019-01-24T10:05:27.836Z,97.60
2019-01-24T10:07:57.104Z,97.50
2019-01-24T10:10:28.299Z,97.30
2019-01-24T10:12:58.969Z,97.30
2019-01-24T10:15:28.449Z,97.40
2019-01-24T10:17:57.962Z,97.00
2019-01-24T10:20:28.039Z,96.80
2019-01-24T10:22:57.740Z,97.20
2019-01-24T10:25:35.464Z,97.20
2019-01-24T10:28:04.942Z,97.20
2019-01-24T10:30:34.259Z,96.80
2019-01-24T10:33:03.756Z,96.70
2019-01-24T10:35:32.988Z,96.60
2019-01-24T10:38:02.507Z,96.40
2019-01-24T10:40:33.154Z,95.60
2019-01-24T10:43:02.481Z,95.30
2019-01-24T10:45:31.737Z,95.50
2019-01-24T10:48:00.997Z,95.50
2019-01-24T10:50:30.222Z,95.40
2019-01-24T10:52:59.861Z,95.90
2019-01-24T10:55:30.493Z,95.90
2019-01-24T10:58:00.798Z,96.10
2019-01-24T11:00:38.626Z,96.20
2019-01-24T11:03:10.337Z,96.40
2019-01-24T11:05:39.665Z,96.50
2019-01-24T11:08:08.945Z,97.00
2019-01-24T11:10:38.281Z,97.20
2019-01-24T11:13:07.591Z,97.40
2019-01-24T11:15:36.986Z,97.10
2019-01-24T11:18:06.927Z,97.10
2019-01-24T11:20:36.153Z,97.20
2019-01-24T11:23:05.550Z,96.90
2019-01-24T11:25:34.962Z,96.80
2019-01-24T11:28:04.529Z,96.70
2019-01-24T11:30:34.145Z,97.00
2019-01-24T11:33:04.070Z,97.10
2019-01-24T11:35:35.277Z,96.90
2019-01-24T11:38:05.074Z,97.00
2019-01-24T11:40:34.786Z,96.80
2019-01-24T11:43:04.296Z,96.60
2019-01-24T11:45:39.056Z,96.40
2019-01-24T11:48:08.451Z,95.90
2019-01-24T11:50:37.708Z,95.80
2019-01-24T11:53:07.010Z,96.00
2019-01-24T11:55:36.371Z,96.10
2019-01-24T11:58:05.836Z,96.10
2019-01-24T12:00:38.976Z,95.90
2019-01-24T12:03:08.489Z,96.10
2019-01-24T12:05:37.809Z,95.50
2019-01-24T12:08:08.184Z,95.10
2019-01-24T12:10:37.596Z,95.40
2019-01-24T12:13:06.872Z,95.30
2019-01-24T12:15:36.100Z,95.30
2019-01-24T12:18:05.753Z,95.40
2019-01-24T12:20:34.986Z,95.00
2019-01-24T12:23:04.615Z,94.90
2019-01-24T12:25:33.936Z,94.90
2019-01-24T12:28:03.631Z,95.00
2019-01-24T12:30:36.897Z,95.30
2019-01-24T12:33:06.482Z,95.30
2019-01-24T12:35:35.816Z,95.30
2019-01-24T12:38:05.398Z,95.10
2019-01-24T12:40:34.702Z,95.00
2019-01-24T12:43:04.495Z,94.50
2019-01-24T12:45:35.463Z,94.10
2019-01-24T12:48:05.656Z,93.80
2019-01-24T12:50:34.891Z,93.10
2019-01-24T12:53:04.569Z,93.10
2019-01-24T12:55:33.830Z,93.30
2019-01-24T12:58:03.063Z,93.20
2019-01-24T13:00:34.787Z,92.80
2019-01-24T13:03:04.528Z,93.20
2019-01-24T13:05:33.771Z,93.50
2019-01-24T13:08:03.052Z,93.70
2019-01-24T13:10:32.540Z,93.80
2019-01-24T13:13:01.816Z,93.70
2019-01-24T13:15:32.685Z,93.90
2019-01-24T13:18:01.949Z,93.90
2019-01-24T13:20:31.269Z,94.10
2019-01-24T13:23:00.524Z,93.80
2019-01-24T13:25:31.816Z,93.50
2019-01-24T13:28:01.140Z,93.30
2019-01-24T13:30:32.528Z,93.20
2019-01-24T13:33:02.736Z,93.20
2019-01-24T13:35:31.957Z,93.20
2019-01-24T13:38:01.376Z,94.00
2019-01-24T13:40:31.386Z,94.60
2019-01-24T13:43:01.191Z,94.80
2019-01-24T13:45:33.169Z,94.90
2019-01-24T13:48:02.672Z,95.00
2019-01-24T13:50:31.931Z,95.10
2019-01-24T13:53:01.144Z,94.80
2019-01-24T13:55:30.737Z,94.70
2019-01-24T13:57:59.991Z,94.90
2019-01-24T14:00:31.749Z,95.00
2019-01-24T14:03:04.061Z,94.60
2019-01-24T14:05:33.285Z,94.60
2019-01-24T14:08:02.544Z,94.80
2019-01-24T14:10:31.816Z,94.90
2019-01-24T14:13:01.066Z,95.10
2019-01-24T14:15:30.312Z,95.60
2019-01-24T14:17:59.545Z,95.40
2019-01-24T14:20:28.871Z,95.20
2019-01-24T14:22:58.118Z,95.10
2019-01-24T14:25:27.324Z,95.10
2019-01-24T14:27:56.546Z,95.10
2019-01-24T14:30:27.439Z,95.30
2019-01-24T14:32:56.785Z,95.40
2019-01-24T14:35:26.043Z,95.60
2019-01-24T14:37:55.413Z,95.10
2019-01-24T14:40:24.673Z,94.90
2019-01-24T14:42:54.498Z,94.70
2019-01-24T14:45:27.376Z,94.50
2019-01-24T14:47:57.378Z,94.20
2019-01-24T14:50:31.199Z,93.90
2019-01-24T14:53:00.525Z,94.10
2019-01-24T14:55:29.818Z,93.60
2019-01-24T14:57:59.033Z,93.60
2019-01-24T15:00:40.231Z,93.20
2019-01-24T15:03:09.615Z,92.70
2019-01-24T15:05:38.853Z,92.50
2019-01-24T15:08:08.245Z,92.80
2019-01-24T15:10:37.593Z,92.40
2019-01-24T15:13:07.274Z,92.10
2019-01-24T15:15:36.497Z,92.10
2019-01-24T15:18:05.995Z,92.30
2019-01-24T15:20:35.196Z,92.50
2019-01-24T15:23:04.577Z,92.50
2019-01-24T15:25:33.805Z,92.30
2019-01-24T15:28:03.075Z,92.20
2019-01-24T15:30:32.405Z,91.90
2019-01-24T15:33:01.669Z,91.50
2019-01-24T15:35:30.959Z,91.30
2019-01-24T15:38:00.243Z,91.10
2019-01-24T15:40:34.268Z,90.70
2019-01-24T15:43:04.115Z,90.50
2019-01-24T15:45:33.443Z,90.30
2019-01-24T15:48:02.700Z,90.10
2019-01-24T15:50:31.959Z,89.90
2019-01-24T15:53:01.199Z,89.50
2019-01-24T15:55:30.458Z,88.70
2019-01-24T15:57:59.699Z,87.70
2019-01-24T16:00:31.571Z,87.20
2019-01-24T16:03:00.898Z,86.70
2019-01-24T16:05:30.277Z,86.90
2019-01-24T16:08:01.990Z,86.40
2019-01-24T16:10:30.463Z,86.10
2019-01-24T16:13:00.353Z,86.30
2019-01-24T16:15:32.747Z,86.50
2019-01-24T16:18:02.010Z,86.90
2019-01-24T16:20:31.397Z,87.10
2019-01-24T16:23:00.654Z,86.70
2019-01-24T16:25:32.647Z,86.50
2019-01-24T16:28:01.946Z,86.20
2019-01-24T16:30:33.622Z,86.00
2019-01-24T16:33:07.391Z,85.80
2019-01-24T16:35:37.104Z,85.60
2019-01-24T16:38:09.450Z,85.20
2019-01-24T16:40:37.306Z,85.10
2019-01-24T16:43:06.741Z,85.20
2019-01-24T16:45:36.090Z,85.00
2019-01-24T16:48:06.042Z,85.10
2019-01-24T16:50:35.368Z,85.20
2019-01-24T16:53:04.850Z,84.50
2019-01-24T16:55:34.085Z,84.00
2019-01-24T16:58:03.405Z,84.40
2019-01-24T17:00:36.050Z,84.00
2019-01-24T17:03:06.051Z,84.10
2019-01-24T17:05:35.637Z,84.40
2019-01-24T17:08:05.974Z,84.90
2019-01-24T17:10:35.230Z,85.60
2019-01-24T17:13:05.641Z,86.70
2019-01-24T17:15:35.019Z,87.50
2019-01-24T17:18:04.822Z,88.50
2019-01-24T17:20:34.148Z,89.50
2019-01-24T17:23:03.940Z,90.30
2019-01-24T17:25:33.534Z,90.70
2019-01-24T17:28:02.811Z,91.10
2019-01-24T17:30:32.808Z,91.40
2019-01-24T17:33:02.396Z,91.90
2019-01-24T17:35:31.662Z,92.40
2019-01-24T17:38:00.912Z,92.80
2019-01-24T17:40:32.518Z,93.20
2019-01-24T17:43:02.017Z,93.60
2019-01-24T17:45:32.530Z,94.20
2019-01-24T17:48:01.840Z,94.60
2019-01-24T17:50:31.092Z,94.80
2019-01-24T17:53:00.345Z,95.20
2019-01-24T17:55:34.924Z,95.70
2019-01-24T17:58:05.789Z,96.00
2019-01-24T18:00:36.680Z,96.30
2019-01-24T18:03:06.235Z,96.50
2019-01-24T18:05:35.500Z,96.70
2019-01-24T18:08:05.680Z,96.90
2019-01-24T18:10:34.993Z,96.90
2019-01-24T18:13:04.785Z,97.10
2019-01-24T18:15:35.711Z,97.30
2019-01-24T18:18:07.745Z,97.50
2019-01-24T18:20:38.013Z,97.60
2019-01-24T18:23:09.394Z,97.80
2019-01-24T18:25:38.827Z,97.90
2019-01-24T18:28:10.116Z,97.80
2019-01-24T18:30:39.502Z,97.70
2019-01-24T18:33:08.855Z,97.50
2019-01-24T18:35:38.408Z,96.90
2019-01-24T18:38:08.044Z,96.80
2019-01-24T18:40:37.658Z,96.60
2019-01-24T18:43:10.122Z,96.70
2019-01-24T18:45:45.366Z,96.80
2019-01-24T18:48:14.687Z,97.00
2019-01-24T18:50:44.014Z,97.10
2019-01-24T18:53:13.503Z,97.30
2019-01-24T18:55:42.735Z,97.20
2019-01-24T18:58:12.178Z,97.20
2019-01-24T19:00:43.249Z,97.10
2019-01-24T19:03:12.613Z,97.00
2019-01-24T19:05:42.037Z,97.00
2019-01-24T19:08:11.372Z,97.30
2019-01-24T19:10:40.696Z,97.10
2019-01-24T19:13:10.107Z,97.40
2019-01-24T19:15:39.400Z,97.40
2019-01-24T19:18:09.205Z,97.40
2019-01-24T19:20:38.462Z,97.50
2019-01-24T19:23:07.779Z,97.50
2019-01-24T19:25:37.161Z,97.60
2019-01-24T19:28:06.496Z,97.80
2019-01-24T19:30:35.748Z,97.90
2019-01-24T19:33:06.762Z,98.20
2019-01-24T19:35:37.968Z,98.70
2019-01-24T19:38:07.282Z,98.60
2019-01-24T19:40:36.537Z,98.60
2019-01-24T19:43:05.934Z,98.70
2019-01-24T19:45:35.283Z,98.90
2019-01-24T19:48:05.306Z,98.90
2019-01-24T19:50:34.633Z,98.90
2019-01-24T19:53:04.764Z,98.90
2019-01-24T19:55:34.114Z,98.90
2019-01-24T19:58:04.303Z,98.90
2019-01-24T20:00:33.923Z,98.90
2019-01-24T20:03:03.369Z,98.80
2019-01-24T20:05:32.637Z,98.90
2019-01-24T20:08:01.949Z,99.10
2019-01-24T20:10:37.271Z,99.30
2019-01-24T20:13:06.663Z,99.10
2019-01-24T20:15:35.952Z,99.10
2019-01-24T20:18:06.843Z,99.50
2019-01-24T20:20:37.622Z,99.20
2019-01-24T20:23:07.518Z,99.30
2019-01-24T20:25:37.206Z,99.30
2019-01-24T20:28:07.822Z,99.30
2019-01-24T20:30:37.054Z,99.30
2019-01-24T20:33:06.445Z,99.30
2019-01-24T20:35:38.453Z,99.50
2019-01-24T20:38:09.511Z,99.60
2019-01-24T20:40:39.023Z,99.60
2019-01-24T20:43:10.489Z,99.50
2019-01-24T20:45:40.069Z,99.60
2019-01-24T20:48:09.669Z,99.70
2019-01-24T20:50:39.070Z,99.80
2019-01-24T20:53:09.456Z,99.90
2019-01-24T20:55:38.881Z,99.90
2019-01-24T20:58:10.068Z,99.90
2019-01-24T21:00:39.925Z,99.90
2019-01-24T21:03:09.301Z,99.90
2019-01-24T21:05:38.599Z,99.90
2019-01-24T21:08:07.911Z,99.90
2019-01-24T21:10:37.179Z,99.90
2019-01-24T21:13:06.481Z,99.90
2019-01-24T21:15:35.737Z,99.90
2019-01-24T21:18:05.164Z,99.90
2019-01-24T21:20:34.452Z,99.90
2019-01-24T21:23:03.856Z,99.90
2019-01-24T21:25:33.102Z,99.90
2019-01-24T21:28:02.353Z,99.90
2019-01-24T21:30:33.948Z,99.90
2019-01-24T21:33:08.668Z,99.90
2019-01-24T21:35:37.909Z,99.90
2019-01-24T21:38:07.691Z,99.90
2019-01-24T21:40:37.007Z,99.90
2019-01-24T21:43:06.509Z,99.90
2019-01-24T21:45:37.587Z,99.90
2019-01-24T21:48:07.982Z,99.90
2019-01-24T21:50:37.360Z,99.90
2019-01-24T21:53:06.926Z,99.90
2019-01-24T21:55:36.344Z,99.90
2019-01-24T21:58:06.543Z,99.90
2019-01-24T22:00:35.862Z,99.90
2019-01-24T22:03:05.678Z,99.90
2019-01-24T22:05:35.121Z,99.90
2019-01-24T22:08:04.746Z,99.90
2019-01-24T22:10:34.214Z,99.90
2019-01-24T22:13:03.710Z,99.80
2019-01-24T22:15:32.958Z,99.80
2019-01-24T22:18:02.265Z,99.70
2019-01-24T22:20:31.527Z,99.60
2019-01-24T22:23:00.752Z,99.40
2019-01-24T22:25:32.538Z,99.20
2019-01-24T22:28:01.944Z,99.30
2019-01-24T22:30:35.825Z,99.40
2019-01-24T22:33:06.233Z,99.40
2019-01-24T22:35:35.563Z,99.50
2019-01-24T22:38:06.061Z,99.50
2019-01-24T22:40:35.373Z,99.80
2019-01-24T22:43:05.551Z,99.90
2019-01-24T22:45:34.806Z,99.90
2019-01-24T22:48:05.370Z,99.90
2019-01-24T22:50:34.721Z,99.80
2019-01-24T22:53:04.139Z,99.90
2019-01-24T22:55:33.394Z,99.90
2019-01-24T22:58:02.732Z,99.90
2019-01-24T23:00:53.037Z,99.90
2019-01-24T23:03:28.396Z,99.90
2019-01-24T23:05:57.640Z,99.90
2019-01-24T23:08:26.895Z,99.90
2019-01-24T23:10:56.242Z,99.90
2019-01-24T23:13:25.477Z,99.90
2019-01-24T23:15:54.715Z,99.80
2019-01-24T23:18:23.968Z,99.90
2019-01-24T23:20:53.223Z,99.80
2019-01-24T23:23:22.481Z,99.90
2019-01-24T23:25:51.806Z,99.90
2019-01-24T23:28:21.231Z,99.90
2019-01-24T23:30:50.469Z,99.90
2019-01-24T23:33:19.741Z,99.90
2019-01-24T23:35:48.981Z,99.90
2019-01-24T23:38:18.316Z,99.90
2019-01-24T23:40:47.538Z,99.90
2019-01-24T23:43:16.886Z,99.90
2019-01-24T23:45:46.196Z,99.90
2019-01-24T23:48:15.626Z,99.70
2019-01-24T23:50:44.865Z,99.80
2019-01-24T23:53:14.127Z,99.90
2019-01-24T23:55:43.388Z,99.90
2019-01-24T23:58:12.641Z,99.90
